sensor_id;sensor_type;location;lat;lon;timestamp;pressure;altitude;pressure_sealevel;temperature;humidity
58092;BME280;43896;48.178;11.578;2023-12-20T00:00:29;95774.28;;;9.28;40.74
58092;BME280;43896;48.178;11.578;2023-12-20T00:02:57;95842.41;;;9.74;40.85
58092;BME280;43896;48.178;11.578;2023-12-20T00:05:22;95779.53;;;9.46;40.97
58092;BME280;43896;48.178;11.578;2023-12-20T00:07:48;95762.16;;;9.27;41.88
58092;BME280;43896;48.178;11.578;2023-12-20T00:10:13;95707.81;;;9.01;41.58
58092;BME280;43896;48.178;11.578;2023-12-20T00:12:38;95744.69;;;9.18;41.27
58092;BME280;43896;48.178;11.578;2023-12-20T00:15:05;95763.25;;;9.43;41.40
58092;BME280;43896;48.178;11.578;2023-12-20T00:17:30;95743.38;;;9.40;41.70
58092;BME280;43896;48.178;11.578;2023-12-20T00:19:56;95752.13;;;9.49;42.02
58092;BME280;43896;48.178;11.578;2023-12-20T00:22:21;95783.09;;;9.63;42.24
58092;BME280;43896;48.178;11.578;2023-12-20T00:24:46;95737.72;;;9.27;41.93
58092;BME280;43896;48.178;11.578;2023-12-20T00:27:14;95781.78;;;9.67;42.18
58092;BME280;43896;48.178;11.578;2023-12-20T00:29:40;95780.09;;;9.58;41.54
58092;BME280;43896;48.178;11.578;2023-12-20T00:32:08;95764.59;;;9.47;43.17
58092;BME280;43896;48.178;11.578;2023-12-20T00:34:33;95701.81;;;9.09;42.74
58092;BME280;43896;48.178;11.578;2023-12-20T00:36:59;95740.06;;;9.38;41.96
58092;BME280;43896;48.178;11.578;2023-12-20T00:39:24;95692.38;;;9.16;41.97
58092;BME280;43896;48.178;11.578;2023-12-20T00:41:49;95732.19;;;9.56;42.19
58092;BME280;43896;48.178;11.578;2023-12-20T00:44:15;95804.09;;;9.89;41.43
58092;BME280;43896;48.178;11.578;2023-12-20T00:46:40;95680.66;;;9.11;42.38
58092;BME280;43896;48.178;11.578;2023-12-20T00:49:06;95722.53;;;9.38;43.00
58092;BME280;43896;48.178;11.578;2023-12-20T00:51:31;95648.16;;;9.04;41.20
58092;BME280;43896;48.178;11.578;2023-12-20T00:53:56;95674.97;;;9.15;40.87
58092;BME280;43896;48.178;11.578;2023-12-20T00:56:22;95697.50;;;9.26;41.50
58092;BME280;43896;48.178;11.578;2023-12-20T00:58:47;95729.91;;;9.61;40.32
58092;BME280;43896;48.178;11.578;2023-12-20T01:01:13;95708.78;;;9.45;40.04
58092;BME280;43896;48.178;11.578;2023-12-20T01:03:38;95689.53;;;9.36;40.09
58092;BME280;43896;48.178;11.578;2023-12-20T01:06:04;95685.84;;;9.20;40.23
58092;BME280;43896;48.178;11.578;2023-12-20T01:08:30;95697.47;;;9.44;40.24
58092;BME280;43896;48.178;11.578;2023-12-20T01:10:55;95691.75;;;9.49;39.82
58092;BME280;43896;48.178;11.578;2023-12-20T01:13:21;95632.03;;;9.16;39.97
58092;BME280;43896;48.178;11.578;2023-12-20T01:15:46;95667.41;;;9.38;40.07
58092;BME280;43896;48.178;11.578;2023-12-20T01:18:13;95683.00;;;9.40;40.00
58092;BME280;43896;48.178;11.578;2023-12-20T01:20:39;95632.53;;;9.20;40.06
58092;BME280;43896;48.178;11.578;2023-12-20T01:23:04;95723.06;;;9.68;39.35
58092;BME280;43896;48.178;11.578;2023-12-20T01:25:29;95691.13;;;9.55;40.31
58092;BME280;43896;48.178;11.578;2023-12-20T01:27:55;95630.81;;;9.11;39.64
58092;BME280;43896;48.178;11.578;2023-12-20T01:30:20;95630.66;;;9.12;40.41
58092;BME280;43896;48.178;11.578;2023-12-20T01:32:46;95728.88;;;9.80;41.05
58092;BME280;43896;48.178;11.578;2023-12-20T01:35:11;95707.00;;;9.80;40.94
58092;BME280;43896;48.178;11.578;2023-12-20T01:37:38;95678.47;;;9.50;40.47
58092;BME280;43896;48.178;11.578;2023-12-20T01:40:03;95624.19;;;9.25;40.87
58092;BME280;43896;48.178;11.578;2023-12-20T01:42:29;95695.13;;;9.67;40.93
58092;BME280;43896;48.178;11.578;2023-12-20T01:44:54;95705.28;;;9.62;41.64
58092;BME280;43896;48.178;11.578;2023-12-20T01:47:20;95634.69;;;9.25;41.59
58092;BME280;43896;48.178;11.578;2023-12-20T01:49:47;95629.44;;;9.25;41.20
58092;BME280;43896;48.178;11.578;2023-12-20T01:52:12;95727.81;;;9.99;41.97
58092;BME280;43896;48.178;11.578;2023-12-20T01:54:38;95644.97;;;9.44;41.48
58092;BME280;43896;48.178;11.578;2023-12-20T01:57:06;95601.41;;;9.25;42.06
58092;BME280;43896;48.178;11.578;2023-12-20T01:59:32;95636.63;;;9.49;41.48
58092;BME280;43896;48.178;11.578;2023-12-20T02:01:58;95617.88;;;9.44;41.72
58092;BME280;43896;48.178;11.578;2023-12-20T02:04:25;95634.53;;;9.52;41.64
58092;BME280;43896;48.178;11.578;2023-12-20T02:06:52;95632.31;;;9.39;41.56
58092;BME280;43896;48.178;11.578;2023-12-20T02:09:18;95580.06;;;9.20;41.63
58092;BME280;43896;48.178;11.578;2023-12-20T02:11:44;95588.81;;;9.29;41.88
58092;BME280;43896;48.178;11.578;2023-12-20T02:14:09;95577.56;;;9.45;41.39
58092;BME280;43896;48.178;11.578;2023-12-20T02:16:35;95597.78;;;9.52;41.82
58092;BME280;43896;48.178;11.578;2023-12-20T02:19:00;95590.97;;;9.42;41.03
58092;BME280;43896;48.178;11.578;2023-12-20T02:21:31;95591.03;;;9.50;41.40
58092;BME280;43896;48.178;11.578;2023-12-20T02:23:57;95568.88;;;9.44;41.17
58092;BME280;43896;48.178;11.578;2023-12-20T02:26:23;95639.56;;;9.80;41.13
58092;BME280;43896;48.178;11.578;2023-12-20T02:28:48;95598.59;;;9.53;41.80
58092;BME280;43896;48.178;11.578;2023-12-20T02:31:13;95619.16;;;9.66;41.75
58092;BME280;43896;48.178;11.578;2023-12-20T02:33:39;95644.69;;;9.82;42.50
58092;BME280;43896;48.178;11.578;2023-12-20T02:36:06;95604.38;;;9.65;41.41
58092;BME280;43896;48.178;11.578;2023-12-20T02:38:31;95645.88;;;9.95;41.58
58092;BME280;43896;48.178;11.578;2023-12-20T02:40:57;95581.53;;;9.57;42.68
58092;BME280;43896;48.178;11.578;2023-12-20T02:43:22;95585.84;;;9.66;42.09
58092;BME280;43896;48.178;11.578;2023-12-20T02:45:48;95608.03;;;9.72;42.67
58092;BME280;43896;48.178;11.578;2023-12-20T02:48:13;95652.94;;;10.03;42.59
58092;BME280;43896;48.178;11.578;2023-12-20T02:50:38;95623.31;;;9.85;42.80
58092;BME280;43896;48.178;11.578;2023-12-20T02:53:04;95517.41;;;9.17;43.29
58092;BME280;43896;48.178;11.578;2023-12-20T02:55:29;95578.25;;;9.55;44.01
58092;BME280;43896;48.178;11.578;2023-12-20T02:57:55;95600.16;;;9.72;44.24
58092;BME280;43896;48.178;11.578;2023-12-20T03:00:20;95539.13;;;9.35;43.83
58092;BME280;43896;48.178;11.578;2023-12-20T03:02:45;95578.75;;;9.58;44.09
58092;BME280;43896;48.178;11.578;2023-12-20T03:05:11;95563.13;;;9.49;44.10
58092;BME280;43896;48.178;11.578;2023-12-20T03:07:37;95556.19;;;9.39;44.86
58092;BME280;43896;48.178;11.578;2023-12-20T03:10:03;95571.66;;;9.43;45.09
58092;BME280;43896;48.178;11.578;2023-12-20T03:12:29;95632.16;;;9.75;45.19
58092;BME280;43896;48.178;11.578;2023-12-20T03:14:54;95565.22;;;9.37;45.32
58092;BME280;43896;48.178;11.578;2023-12-20T03:17:20;95535.06;;;9.07;46.59
58092;BME280;43896;48.178;11.578;2023-12-20T03:19:46;95538.78;;;9.38;45.76
58092;BME280;43896;48.178;11.578;2023-12-20T03:22:11;95598.34;;;9.72;45.60
58092;BME280;43896;48.178;11.578;2023-12-20T03:24:37;95592.56;;;9.69;46.28
58092;BME280;43896;48.178;11.578;2023-12-20T03:27:02;95601.25;;;9.61;46.18
58092;BME280;43896;48.178;11.578;2023-12-20T03:29:30;95543.22;;;9.38;46.50
58092;BME280;43896;48.178;11.578;2023-12-20T03:31:55;95598.50;;;9.71;46.80
58092;BME280;43896;48.178;11.578;2023-12-20T03:34:21;95629.41;;;9.85;47.29
58092;BME280;43896;48.178;11.578;2023-12-20T03:36:46;95582.66;;;9.46;47.12
58092;BME280;43896;48.178;11.578;2023-12-20T03:39:13;95582.03;;;9.18;48.13
58092;BME280;43896;48.178;11.578;2023-12-20T03:41:38;95580.88;;;9.20;48.35
58092;BME280;43896;48.178;11.578;2023-12-20T03:44:04;95569.63;;;9.02;48.62
58092;BME280;43896;48.178;11.578;2023-12-20T03:46:29;95622.84;;;9.20;49.49
58092;BME280;43896;48.178;11.578;2023-12-20T03:48:54;95660.22;;;9.41;49.58
58092;BME280;43896;48.178;11.578;2023-12-20T03:51:20;95584.69;;;9.00;49.79
58092;BME280;43896;48.178;11.578;2023-12-20T03:53:45;95640.03;;;9.41;49.55
58092;BME280;43896;48.178;11.578;2023-12-20T03:56:11;95614.84;;;8.96;51.17
58092;BME280;43896;48.178;11.578;2023-12-20T03:58:36;95639.41;;;9.21;51.20
58092;BME280;43896;48.178;11.578;2023-12-20T04:01:02;95667.50;;;9.55;51.07
58092;BME280;43896;48.178;11.578;2023-12-20T04:03:27;95677.56;;;9.68;50.53
58092;BME280;43896;48.178;11.578;2023-12-20T04:05:53;95633.09;;;9.32;51.63
58092;BME280;43896;48.178;11.578;2023-12-20T04:08:19;95641.53;;;9.17;52.95
58092;BME280;43896;48.178;11.578;2023-12-20T04:10:44;95620.97;;;9.05;52.82
58092;BME280;43896;48.178;11.578;2023-12-20T04:13:12;95634.50;;;9.18;54.05
58092;BME280;43896;48.178;11.578;2023-12-20T04:15:37;95607.69;;;9.06;53.71
58092;BME280;43896;48.178;11.578;2023-12-20T04:18:05;95592.00;;;8.88;54.08
58092;BME280;43896;48.178;11.578;2023-12-20T04:20:31;95597.16;;;8.98;54.51
58092;BME280;43896;48.178;11.578;2023-12-20T04:22:56;95640.13;;;9.05;55.26
58092;BME280;43896;48.178;11.578;2023-12-20T04:25:22;95584.53;;;8.75;55.64
58092;BME280;43896;48.178;11.578;2023-12-20T04:27:47;95656.53;;;9.25;55.80
58092;BME280;43896;48.178;11.578;2023-12-20T04:30:13;95654.44;;;9.11;56.51
58092;BME280;43896;48.178;11.578;2023-12-20T04:32:38;95670.50;;;9.34;56.56
58092;BME280;43896;48.178;11.578;2023-12-20T04:35:04;95705.75;;;9.31;57.47
58092;BME280;43896;48.178;11.578;2023-12-20T04:37:30;95650.63;;;9.05;56.98
58092;BME280;43896;48.178;11.578;2023-12-20T04:39:55;95694.34;;;8.96;58.22
58092;BME280;43896;48.178;11.578;2023-12-20T04:42:21;95666.72;;;8.84;58.53
58092;BME280;43896;48.178;11.578;2023-12-20T04:44:46;95653.31;;;8.51;59.87
58092;BME280;43896;48.178;11.578;2023-12-20T04:47:11;95619.50;;;8.30;60.20
58092;BME280;43896;48.178;11.578;2023-12-20T04:49:37;95602.88;;;8.03;60.21
58092;BME280;43896;48.178;11.578;2023-12-20T04:52:02;95650.88;;;8.40;60.77
58092;BME280;43896;48.178;11.578;2023-12-20T04:54:28;95619.50;;;8.12;60.78
58092;BME280;43896;48.178;11.578;2023-12-20T04:56:53;95694.28;;;8.70;60.87
58092;BME280;43896;48.178;11.578;2023-12-20T04:59:19;95676.38;;;8.66;61.16
58092;BME280;43896;48.178;11.578;2023-12-20T05:01:44;95616.94;;;8.02;62.02
58092;BME280;43896;48.178;11.578;2023-12-20T05:04:12;95619.69;;;8.01;63.37
58092;BME280;43896;48.178;11.578;2023-12-20T05:06:37;95673.13;;;8.36;62.96
58092;BME280;43896;48.178;11.578;2023-12-20T05:09:03;95753.84;;;9.14;62.63
58092;BME280;43896;48.178;11.578;2023-12-20T05:11:28;95647.09;;;8.52;62.86
58092;BME280;43896;48.178;11.578;2023-12-20T05:13:54;95684.03;;;8.77;62.84
58092;BME280;43896;48.178;11.578;2023-12-20T05:16:19;95716.66;;;9.00;62.62
58092;BME280;43896;48.178;11.578;2023-12-20T05:18:48;95711.47;;;9.09;62.14
58092;BME280;43896;48.178;11.578;2023-12-20T05:21:15;95713.59;;;9.05;61.63
58092;BME280;43896;48.178;11.578;2023-12-20T05:23:40;95673.69;;;8.75;62.56
58092;BME280;43896;48.178;11.578;2023-12-20T05:26:05;95661.53;;;8.74;62.85
58092;BME280;43896;48.178;11.578;2023-12-20T05:28:31;95674.13;;;8.71;62.72
58092;BME280;43896;48.178;11.578;2023-12-20T05:30:57;95711.03;;;9.13;62.20
58092;BME280;43896;48.178;11.578;2023-12-20T05:33:22;95645.06;;;8.82;61.62
58092;BME280;43896;48.178;11.578;2023-12-20T05:35:48;95709.91;;;9.16;62.17
58092;BME280;43896;48.178;11.578;2023-12-20T05:38:13;95666.34;;;8.43;63.39
58092;BME280;43896;48.178;11.578;2023-12-20T05:40:38;95696.59;;;8.27;64.44
58092;BME280;43896;48.178;11.578;2023-12-20T05:43:04;95696.81;;;7.88;65.81
58092;BME280;43896;48.178;11.578;2023-12-20T05:45:29;95724.66;;;7.89;66.19
58092;BME280;43896;48.178;11.578;2023-12-20T05:47:54;95774.91;;;8.03;67.34
58092;BME280;43896;48.178;11.578;2023-12-20T05:50:20;95761.81;;;7.56;68.13
58092;BME280;43896;48.178;11.578;2023-12-20T05:52:46;95700.78;;;6.98;68.85
58092;BME280;43896;48.178;11.578;2023-12-20T05:55:11;95708.22;;;6.73;68.93
58092;BME280;43896;48.178;11.578;2023-12-20T05:57:37;95808.50;;;7.60;69.31
58092;BME280;43896;48.178;11.578;2023-12-20T06:00:02;95805.91;;;7.50;70.25
58092;BME280;43896;48.178;11.578;2023-12-20T06:02:28;95796.66;;;7.56;68.67
58092;BME280;43896;48.178;11.578;2023-12-20T06:04:54;95768.03;;;7.35;68.61
58092;BME280;43896;48.178;11.578;2023-12-20T06:07:19;95815.81;;;7.47;69.22
58092;BME280;43896;48.178;11.578;2023-12-20T06:09:45;95833.56;;;7.63;68.80
58092;BME280;43896;48.178;11.578;2023-12-20T06:12:11;95822.16;;;7.44;69.21
58092;BME280;43896;48.178;11.578;2023-12-20T06:14:36;95823.69;;;7.27;69.02
58092;BME280;43896;48.178;11.578;2023-12-20T06:17:02;95823.81;;;7.45;69.01
58092;BME280;43896;48.178;11.578;2023-12-20T06:19:27;95818.28;;;7.39;68.73
58092;BME280;43896;48.178;11.578;2023-12-20T06:21:53;95839.09;;;7.50;69.22
58092;BME280;43896;48.178;11.578;2023-12-20T06:24:18;95838.28;;;7.10;69.63
58092;BME280;43896;48.178;11.578;2023-12-20T06:26:44;95809.47;;;6.91;70.45
58092;BME280;43896;48.178;11.578;2023-12-20T06:29:09;95841.84;;;7.19;70.19
58092;BME280;43896;48.178;11.578;2023-12-20T06:31:34;95839.38;;;7.18;69.51
58092;BME280;43896;48.178;11.578;2023-12-20T06:34:03;95823.16;;;6.54;70.77
58092;BME280;43896;48.178;11.578;2023-12-20T06:36:28;95846.13;;;7.10;70.34
58092;BME280;43896;48.178;11.578;2023-12-20T06:38:54;95836.19;;;7.14;69.35
58092;BME280;43896;48.178;11.578;2023-12-20T06:41:19;95826.81;;;6.92;70.96
58092;BME280;43896;48.178;11.578;2023-12-20T06:43:45;95858.25;;;7.31;69.94
58092;BME280;43896;48.178;11.578;2023-12-20T06:46:10;95862.78;;;7.39;69.28
58092;BME280;43896;48.178;11.578;2023-12-20T06:48:37;95857.13;;;7.14;69.23
58092;BME280;43896;48.178;11.578;2023-12-20T06:51:02;95832.06;;;6.92;69.54
58092;BME280;43896;48.178;11.578;2023-12-20T06:53:28;95874.31;;;7.17;69.49
58092;BME280;43896;48.178;11.578;2023-12-20T06:55:53;95810.56;;;6.69;69.31
58092;BME280;43896;48.178;11.578;2023-12-20T06:58:21;95843.63;;;6.99;69.96
58092;BME280;43896;48.178;11.578;2023-12-20T07:00:46;95846.91;;;7.01;69.65
58092;BME280;43896;48.178;11.578;2023-12-20T07:03:12;95883.31;;;6.64;71.32
58092;BME280;43896;48.178;11.578;2023-12-20T07:05:37;95887.81;;;6.52;71.33
58092;BME280;43896;48.178;11.578;2023-12-20T07:08:03;95826.56;;;6.35;70.49
58092;BME280;43896;48.178;11.578;2023-12-20T07:10:28;95905.63;;;6.78;70.87
58092;BME280;43896;48.178;11.578;2023-12-20T07:12:53;95901.13;;;6.99;70.29
58092;BME280;43896;48.178;11.578;2023-12-20T07:15:20;95913.00;;;7.03;69.52
58092;BME280;43896;48.178;11.578;2023-12-20T07:17:46;95872.47;;;6.78;69.46
58092;BME280;43896;48.178;11.578;2023-12-20T07:20:11;95885.44;;;6.89;69.49
58092;BME280;43896;48.178;11.578;2023-12-20T07:22:37;95920.44;;;7.18;69.59
58092;BME280;43896;48.178;11.578;2023-12-20T07:25:02;95886.28;;;7.00;69.64
58092;BME280;43896;48.178;11.578;2023-12-20T07:27:28;95905.63;;;6.78;69.76
58092;BME280;43896;48.178;11.578;2023-12-20T07:29:54;95923.13;;;6.87;70.27
58092;BME280;43896;48.178;11.578;2023-12-20T07:32:19;95894.34;;;6.77;69.28
58092;BME280;43896;48.178;11.578;2023-12-20T07:34:45;95926.75;;;7.05;69.99
58092;BME280;43896;48.178;11.578;2023-12-20T07:37:10;95841.00;;;6.39;69.70
58092;BME280;43896;48.178;11.578;2023-12-20T07:39:37;95925.09;;;6.94;69.56
58092;BME280;43896;48.178;11.578;2023-12-20T07:42:03;95920.94;;;6.92;69.25
58092;BME280;43896;48.178;11.578;2023-12-20T07:44:28;95894.75;;;6.72;69.25
58092;BME280;43896;48.178;11.578;2023-12-20T07:46:53;95929.28;;;6.45;71.03
58092;BME280;43896;48.178;11.578;2023-12-20T07:49:19;95922.28;;;6.46;70.54
58092;BME280;43896;48.178;11.578;2023-12-20T07:51:44;95910.03;;;6.46;70.42
58092;BME280;43896;48.178;11.578;2023-12-20T07:54:10;95911.38;;;6.71;70.12
58092;BME280;43896;48.178;11.578;2023-12-20T07:56:35;95936.34;;;6.54;70.33
58092;BME280;43896;48.178;11.578;2023-12-20T07:59:01;95879.09;;;6.42;69.77
58092;BME280;43896;48.178;11.578;2023-12-20T08:01:26;95898.56;;;6.68;69.04
58092;BME280;43896;48.178;11.578;2023-12-20T08:03:52;95907.22;;;6.59;68.88
58092;BME280;43896;48.178;11.578;2023-12-20T08:06:17;95945.28;;;6.92;69.21
58092;BME280;43896;48.178;11.578;2023-12-20T08:08:43;95953.31;;;6.70;69.49
58092;BME280;43896;48.178;11.578;2023-12-20T08:11:08;95940.50;;;6.36;70.39
58092;BME280;43896;48.178;11.578;2023-12-20T08:13:33;95963.22;;;6.66;69.34
58092;BME280;43896;48.178;11.578;2023-12-20T08:15:59;95961.72;;;6.43;71.76
58092;BME280;43896;48.178;11.578;2023-12-20T08:18:24;95934.22;;;6.69;70.50
58092;BME280;43896;48.178;11.578;2023-12-20T08:20:50;95956.41;;;6.85;70.26
58092;BME280;43896;48.178;11.578;2023-12-20T08:23:18;95927.63;;;6.75;70.00
58092;BME280;43896;48.178;11.578;2023-12-20T08:25:43;95945.78;;;6.76;69.40
58092;BME280;43896;48.178;11.578;2023-12-20T08:28:08;95923.03;;;6.57;70.02
58092;BME280;43896;48.178;11.578;2023-12-20T08:30:34;95920.91;;;6.42;70.96
58092;BME280;43896;48.178;11.578;2023-12-20T08:33:00;95957.78;;;6.79;69.75
58092;BME280;43896;48.178;11.578;2023-12-20T08:35:25;95937.41;;;6.21;70.06
58092;BME280;43896;48.178;11.578;2023-12-20T08:37:50;95877.97;;;6.04;70.24
58092;BME280;43896;48.178;11.578;2023-12-20T08:40:16;95971.00;;;6.56;70.85
58092;BME280;43896;48.178;11.578;2023-12-20T08:42:41;95916.47;;;6.42;70.14
58092;BME280;43896;48.178;11.578;2023-12-20T08:45:07;95951.56;;;6.49;70.01
58092;BME280;43896;48.178;11.578;2023-12-20T08:47:33;95950.59;;;6.71;69.59
58092;BME280;43896;48.178;11.578;2023-12-20T08:49:58;95925.28;;;6.41;70.57
58092;BME280;43896;48.178;11.578;2023-12-20T08:52:25;95929.94;;;6.68;69.45
58092;BME280;43896;48.178;11.578;2023-12-20T08:54:52;95952.69;;;6.78;69.89
58092;BME280;43896;48.178;11.578;2023-12-20T08:57:21;95975.66;;;6.84;70.28
58092;BME280;43896;48.178;11.578;2023-12-20T08:59:49;95937.00;;;6.78;69.81
58092;BME280;43896;48.178;11.578;2023-12-20T09:02:16;95912.94;;;6.22;71.38
58092;BME280;43896;48.178;11.578;2023-12-20T09:04:42;95963.88;;;6.89;70.24
58092;BME280;43896;48.178;11.578;2023-12-20T09:07:20;95919.53;;;6.47;70.40
58092;BME280;43896;48.178;11.578;2023-12-20T09:09:46;95896.22;;;6.65;69.49
58092;BME280;43896;48.178;11.578;2023-12-20T09:12:11;95928.88;;;6.81;70.06
58092;BME280;43896;48.178;11.578;2023-12-20T09:14:37;95945.28;;;6.83;69.43
58092;BME280;43896;48.178;11.578;2023-12-20T09:17:02;95960.72;;;6.95;69.46
58092;BME280;43896;48.178;11.578;2023-12-20T09:19:28;95961.53;;;6.55;71.36
58092;BME280;43896;48.178;11.578;2023-12-20T09:21:54;95878.91;;;6.33;70.48
58092;BME280;43896;48.178;11.578;2023-12-20T09:24:20;95962.50;;;6.95;70.30
58092;BME280;43896;48.178;11.578;2023-12-20T09:26:45;95956.84;;;6.90;70.28
58092;BME280;43896;48.178;11.578;2023-12-20T09:29:10;95969.00;;;6.70;70.96
58092;BME280;43896;48.178;11.578;2023-12-20T09:31:40;95946.22;;;5.88;73.26
58092;BME280;43896;48.178;11.578;2023-12-20T09:34:05;95970.41;;;6.22;72.40
58092;BME280;43896;48.178;11.578;2023-12-20T09:36:31;95930.97;;;6.56;71.20
58092;BME280;43896;48.178;11.578;2023-12-20T09:39:01;95927.63;;;6.44;70.80
58092;BME280;43896;48.178;11.578;2023-12-20T09:41:28;95895.13;;;5.85;71.54
58092;BME280;43896;48.178;11.578;2023-12-20T09:44:00;95936.34;;;6.54;71.50
58092;BME280;43896;48.178;11.578;2023-12-20T09:46:28;95966.13;;;6.73;70.72
58092;BME280;43896;48.178;11.578;2023-12-20T09:48:59;95958.78;;;6.36;70.93
58092;BME280;43896;48.178;11.578;2023-12-20T09:51:28;95889.06;;;6.27;71.08
58092;BME280;43896;48.178;11.578;2023-12-20T09:53:54;95936.22;;;6.56;70.38
58092;BME280;43896;48.178;11.578;2023-12-20T09:56:20;95950.44;;;6.73;70.60
58092;BME280;43896;48.178;11.578;2023-12-20T09:58:46;95904.09;;;6.34;71.56
58092;BME280;43896;48.178;11.578;2023-12-20T10:01:12;95885.81;;;6.34;69.86
58092;BME280;43896;48.178;11.578;2023-12-20T10:03:39;95927.97;;;6.91;70.26
58092;BME280;43896;48.178;11.578;2023-12-20T10:06:06;95943.28;;;7.06;70.03
58092;BME280;43896;48.178;11.578;2023-12-20T10:08:32;95894.94;;;6.90;69.66
58092;BME280;43896;48.178;11.578;2023-12-20T10:10:58;95919.69;;;6.96;69.69
58092;BME280;43896;48.178;11.578;2023-12-20T10:13:27;95947.94;;;7.02;70.21
58092;BME280;43896;48.178;11.578;2023-12-20T10:15:54;95907.19;;;6.90;69.32
58092;BME280;43896;48.178;11.578;2023-12-20T10:18:20;95882.25;;;6.86;69.39
58092;BME280;43896;48.178;11.578;2023-12-20T10:20:46;95941.41;;;7.47;69.26
58092;BME280;43896;48.178;11.578;2023-12-20T10:23:11;95929.03;;;7.39;69.07
58092;BME280;43896;48.178;11.578;2023-12-20T10:25:37;95922.78;;;7.30;69.03
58092;BME280;43896;48.178;11.578;2023-12-20T10:28:13;95901.47;;;7.45;69.26
58092;BME280;43896;48.178;11.578;2023-12-20T10:30:40;95940.72;;;7.55;69.25
58092;BME280;43896;48.178;11.578;2023-12-20T10:33:07;95881.47;;;7.14;70.17
58092;BME280;43896;48.178;11.578;2023-12-20T10:35:37;95895.56;;;7.43;69.63
58092;BME280;43896;48.178;11.578;2023-12-20T10:38:05;95920.75;;;7.73;68.56
58092;BME280;43896;48.178;11.578;2023-12-20T10:40:31;95935.50;;;7.64;68.85
58092;BME280;43896;48.178;11.578;2023-12-20T10:42:59;95932.34;;;7.61;68.95
58092;BME280;43896;48.178;11.578;2023-12-20T10:45:26;95912.50;;;7.48;69.81
58092;BME280;43896;48.178;11.578;2023-12-20T10:47:51;95904.56;;;6.90;71.05
58092;BME280;43896;48.178;11.578;2023-12-20T10:50:19;95900.78;;;7.13;70.33
58092;BME280;43896;48.178;11.578;2023-12-20T10:52:45;95916.09;;;7.38;69.63
58092;BME280;43896;48.178;11.578;2023-12-20T10:55:11;95907.94;;;7.31;69.25
58092;BME280;43896;48.178;11.578;2023-12-20T10:57:38;95926.84;;;7.44;69.29
58092;BME280;43896;48.178;11.578;2023-12-20T11:00:06;95911.81;;;7.46;69.92
58092;BME280;43896;48.178;11.578;2023-12-20T11:02:39;95923.47;;;7.03;71.54
58092;BME280;43896;48.178;11.578;2023-12-20T11:07:52;95875.44;;;7.14;69.82
58092;BME280;43896;48.178;11.578;2023-12-20T11:10:26;95890.38;;;6.83;70.78
58092;BME280;43896;48.178;11.578;2023-12-20T11:15:35;95918.91;;;7.15;71.08
58092;BME280;43896;48.178;11.578;2023-12-20T11:18:00;95884.50;;;7.20;69.77
58092;BME280;43896;48.178;11.578;2023-12-20T11:20:40;95912.38;;;7.50;70.78
58092;BME280;43896;48.178;11.578;2023-12-20T11:23:07;95899.81;;;7.24;69.90
58092;BME280;43896;48.178;11.578;2023-12-20T11:25:52;95898.19;;;7.43;69.09
58092;BME280;43896;48.178;11.578;2023-12-20T11:28:22;95894.88;;;7.60;69.29
58092;BME280;43896;48.178;11.578;2023-12-20T11:30:50;95897.63;;;7.59;68.48
58092;BME280;43896;48.178;11.578;2023-12-20T11:33:16;95886.88;;;7.62;68.68
58092;BME280;43896;48.178;11.578;2023-12-20T11:35:42;95880.94;;;7.60;68.35
58092;BME280;43896;48.178;11.578;2023-12-20T11:38:10;95863.63;;;7.39;68.79
58092;BME280;43896;48.178;11.578;2023-12-20T11:40:36;95880.94;;;7.60;67.99
58092;BME280;43896;48.178;11.578;2023-12-20T11:43:03;95846.38;;;7.37;68.21
58092;BME280;43896;48.178;11.578;2023-12-20T11:45:29;95784.31;;;7.09;68.49
58092;BME280;43896;48.178;11.578;2023-12-20T11:47:56;95874.19;;;7.77;67.33
58092;BME280;43896;48.178;11.578;2023-12-20T11:50:23;95871.69;;;7.85;67.20
58092;BME280;43896;48.178;11.578;2023-12-20T11:52:49;95873.63;;;7.93;66.51
58092;BME280;43896;48.178;11.578;2023-12-20T11:55:14;95866.50;;;7.65;67.25
58092;BME280;43896;48.178;11.578;2023-12-20T11:57:41;95848.00;;;7.77;66.47
58092;BME280;43896;48.178;11.578;2023-12-20T12:00:07;95845.28;;;7.59;66.80
58092;BME280;43896;48.178;11.578;2023-12-20T12:02:33;95838.25;;;7.59;66.79
58092;BME280;43896;48.178;11.578;2023-12-20T12:04:59;95852.31;;;7.58;67.36
58092;BME280;43896;48.178;11.578;2023-12-20T12:07:25;95854.78;;;7.60;67.57
58092;BME280;43896;48.178;11.578;2023-12-20T12:09:50;95845.56;;;7.56;67.53
58092;BME280;43896;48.178;11.578;2023-12-20T12:12:16;95841.63;;;7.99;66.35
58092;BME280;43896;48.178;11.578;2023-12-20T12:14:44;95858.50;;;8.24;65.61
58092;BME280;43896;48.178;11.578;2023-12-20T12:17:13;95843.34;;;8.18;65.32
58092;BME280;43896;48.178;11.578;2023-12-20T12:19:39;95859.34;;;8.15;65.89
58092;BME280;43896;48.178;11.578;2023-12-20T12:24:36;95836.66;;;7.96;65.00
58092;BME280;43896;48.178;11.578;2023-12-20T12:27:02;95801.38;;;7.33;66.06
58092;BME280;43896;48.178;11.578;2023-12-20T12:29:29;95849.25;;;7.73;66.92
58092;BME280;43896;48.178;11.578;2023-12-20T12:31:54;95831.75;;;7.73;66.62
58092;BME280;43896;48.178;11.578;2023-12-20T12:34:20;95802.25;;;7.81;65.93
58092;BME280;43896;48.178;11.578;2023-12-20T12:36:45;95850.13;;;8.20;64.82
58092;BME280;43896;48.178;11.578;2023-12-20T12:39:17;95816.56;;;7.96;65.80
58092;BME280;43896;48.178;11.578;2023-12-20T12:41:43;95837.19;;;8.09;65.43
58092;BME280;43896;48.178;11.578;2023-12-20T12:44:08;95820.94;;;8.05;65.42
58092;BME280;43896;48.178;11.578;2023-12-20T12:46:34;95823.81;;;8.12;65.36
58092;BME280;43896;48.178;11.578;2023-12-20T12:48:59;95806.22;;;7.95;65.77
58092;BME280;43896;48.178;11.578;2023-12-20T12:51:25;95806.50;;;7.82;66.64
58092;BME280;43896;48.178;11.578;2023-12-20T12:53:50;95845.75;;;8.01;67.35
58092;BME280;43896;48.178;11.578;2023-12-20T12:56:15;95816.91;;;7.15;69.78
58092;BME280;43896;48.178;11.578;2023-12-20T12:58:41;95828.34;;;6.94;70.47
58092;BME280;43896;48.178;11.578;2023-12-20T13:01:07;95857.59;;;6.79;69.74